AirNav   Pilot Hours Calculator
 
 441 users online  

9KS0 Coffeyville Regional Medical Center Heliport
Coffeyville, Kansas, USA

GOING TO COFFEYVILLE?


FAA INFORMATION EFFECTIVE 08 SEPTEMBER 2022

Location

FAA Identifier: 9KS0
Lat/Long: 37-02-30.2810N 095-38-20.9200W
37-02.504683N 095-38.348667W
37.0417447,-95.6391444
(estimated)
Elevation: 750 ft. / 229 m (estimated)
Variation: 06E (1985)
Time zone: UTC -5 (UTC -6 during Standard Time)
Zip code: 67337

Heliport Operations

Heliport use: Private use, MEDICAL.
Activation date: 07/1979
Control tower: no
ARTCC: KANSAS CITY CENTER
FSS: WICHITA FLIGHT SERVICE STATION
Attendance: UNATNDD
Wind indicator: yes
Segmented circle: no

Heliport Communications

WX ASOS at CFV (4 nm NE): 121.275 (620-251-1959)
WX AWOS-3PT at IDP (10 nm NW): 118.525 (620-331-5980)
WX ASOS at PPF (18 nm N): 118.175 (620-336-3834)

Nearby radio navigation aids

VOR radial/distance  VOR name  Freq  Var
BVOr048/22.0BARTLESVILLE VOR/DME117.9008E
CNUr179/35.1CHANUTE VOR/DME109.2005E

Heliport Services

Runway Information

Helipad H1

Dimensions: 200 x 100 ft. / 61 x 30 m
Surface: turf/dirt
Latitude: 37-02.504683N
Longitude: 095-38.348667W
Elevation: 750.0 ft.
Traffic pattern: leftleft

Heliport Ownership and Management from official FAA records

Ownership: Publicly-owned
Owner: COFFEYVILLE RGNL MED CENTER
1400 W 4TH ST
COFFEYVILLE, KS 67337
Phone 620-251-1200
Manager: LORI REXWINKLE, CEO
1400 W 4TH ST
COFFEYVILLE, KS 67337
Phone 620-251-1200
SAM GUILD, CFO. SGUILD@CRMCINC.ORG.

Additional Remarks

FOR CD CTC KANSAS CITY ARTCC AT 913-254-8508.

Instrument Procedures

There are no published instrument procedures at 9KS0.

Some nearby airports with instrument procedures:

KCFV - Coffeyville Municipal Airport (4 nm NE)
KIDP - Independence Municipal Airport (10 nm NW)
KPPF - Tri-City Airport (18 nm N)
2K7 - Neodesha Municipal Airport (24 nm N)
KBVO - Bartlesville Municipal Airport (24 nm SW)
 
Loc | Ops | Rwys | IFR | FBO | Links
Com | Nav | Svcs | Stats | Notes
Area around 9KS0 (Coffeyville Regional Medical Center Heliport)
 
Road maps at: MapQuest Bing Google
 
Aerial photo
No photo
 
Sectional chart

 
Airport distance calculator
Flying to Coffeyville Regional Medical Center Heliport? Find the distance to fly.

From to 9KS0

Sunrise and sunset
Times for 01-Oct-2022
 Local
(UTC-5)
 Zulu
(UTC)
Morning civil twilight06:5311:53
Sunrise07:1912:19
Sunset19:0600:06
Evening civil twilight19:3100:31

Current date and time
Zulu (UTC)  01-Oct-2022 07:29:39
Local (UTC-5)  01-Oct-2022 02:29:39
 
METAR
KCFV 
4nm NE 
010652Z AUTO 00000KT 10SM CLR 11/03 A3006 RMK AO2 SLP174 T01110033
KIDP 
10nm NW 
010715Z AUTO 00000KT 10SM CLR 11/03 A3008 RMK AO2 T01070035
KPPF 
19nm N 
010652Z AUTO 00000KT 10SM CLR 11/03 A3008 RMK AO2 SLP180 T01110028
TAF
KBVO 
25nm SW 
010520Z 0106/0206 00000KT P6SM SKC FM011500 07005KT P6SM SKC
NOTAMs
Click for the latest NOTAMs
NOTAMs are issued by the DoD/FAA and will open in a separate window not controlled by AirNav.

 

 
 

Would you like to see your business listed on this page?

 If your business provides an interesting product or service to pilots, flight crews, aircraft, or users of the Coffeyville Regional Medical Center Heliport, you should consider listing it here.  To start the listing process, click on the button below
 
Add a business
 

Other Pages about Coffeyville Regional Medical Center Heliport

Update a link
 
Copyright © AirNav, LLC. All rights reserved. Privacy Policy  Contact